Time;durP1;ratioP1;P1;durP2;ratioP2;P2;SDS_P1;SDS_P2;PMS_P1;PMS_P2;Temp;Humidity;BMP_temperature;BMP_pressure;BME280_temperature;BME280_humidity;BME280_pressure;Samples;Min_cycle;Max_cycle;Signal;HPM_P1;HPM_P2
2023/09/12 00:00:35;;;;;;;;;;;24.00;56.30;;;;;;1566924;74;734;-69
2023/09/12 00:02:37;;;;;;;;;;;24.00;56.40;;;;;;1570175;74;786;-69
2023/09/12 00:04:38;;;;;;;;;;;24.00;56.40;;;;;;1570481;74;714;-69
2023/09/12 00:06:40;;;;;;;;;;;24.00;56.30;;;;;;1569753;74;1942;-70
2023/09/12 00:08:42;;;;;;;;;;;24.00;56.30;;;;;;1566888;74;770;-70
2023/09/12 00:10:44;;;;;;;;;;;24.00;56.40;;;;;;1564827;74;739;-68
2023/09/12 00:12:46;;;;;;;;;;;24.00;56.40;;;;;;1568815;74;797;-69
2023/09/12 00:14:48;;;;;;;;;;;24.00;56.40;;;;;;1570012;74;664;-69
2023/09/12 00:16:52;;;;;;;;;;;24.00;56.30;;;;;;1569677;74;1195;-69
2023/09/12 00:18:54;;;;;;;;;;;24.00;56.30;;;;;;1569372;74;1445;-69
2023/09/12 00:20:56;;;;;;;;;;;24.00;56.30;;;;;;1567482;74;1559;-69
2023/09/12 00:22:58;;;;;;;;;;;24.00;56.40;;;;;;1564904;74;738;-69
2023/09/12 00:25:00;;;;;;;;;;;24.00;56.30;;;;;;1560887;74;786;-71
2023/09/12 00:27:04;;;;;;;;;;;24.00;56.40;;;;;;1569917;74;1156;-68
2023/09/12 00:29:05;;;;;;;;;;;24.00;56.30;;;;;;1571049;74;1686;-69
2023/09/12 00:31:07;;;;;;;;;;;24.00;56.40;;;;;;1569176;74;744;-68
2023/09/12 00:33:09;;;;;;;;;;;24.00;56.30;;;;;;1564439;74;830;-69
2023/09/12 00:35:11;;;;;;;;;;;24.00;56.30;;;;;;1562016;74;1574;-68
2023/09/12 00:37:13;;;;;;;;;;;24.00;56.40;;;;;;1570058;74;1164;-69
2023/09/12 00:39:15;;;;;;;;;;;24.00;56.40;;;;;;1570535;74;719;-70
2023/09/12 00:41:17;;;;;;;;;;;24.00;56.50;;;;;;1568959;74;824;-68
2023/09/12 00:43:19;;;;;;;;;;;24.00;56.40;;;;;;1569439;74;736;-69
2023/09/12 00:45:21;;;;;;;;;;;24.00;56.40;;;;;;1570199;74;1930;-69
2023/09/12 00:47:22;;;;;;;;;;;24.00;56.40;;;;;;1569435;74;1136;-68
2023/09/12 00:49:24;;;;;;;;;;;23.90;56.40;;;;;;1563656;74;1544;-70
2023/09/12 00:51:26;;;;;;;;;;;23.90;56.40;;;;;;1560969;74;720;-69
2023/09/12 00:53:28;;;;;;;;;;;23.90;56.50;;;;;;1569507;74;738;-70
2023/09/12 00:55:31;;;;;;;;;;;23.90;56.50;;;;;;1570645;74;756;-69
2023/09/12 00:57:33;;;;;;;;;;;24.00;56.40;;;;;;1568661;74;1173;-69
2023/09/12 00:59:35;;;;;;;;;;;24.00;56.40;;;;;;1561349;74;736;-69
2023/09/12 01:01:37;;;;;;;;;;;24.00;56.50;;;;;;1563845;74;739;-69
2023/09/12 01:03:39;;;;;;;;;;;24.00;56.40;;;;;;1575486;74;1483;-69
2023/09/12 01:05:42;;;;;;;;;;;23.90;56.40;;;;;;1567717;74;1916;-70
2023/09/12 01:07:44;;;;;;;;;;;24.00;56.50;;;;;;1570184;74;1149;-69
2023/09/12 01:09:46;;;;;;;;;;;24.00;56.50;;;;;;1569216;74;627;-69
2023/09/12 01:11:48;;;;;;;;;;;23.90;56.50;;;;;;1566975;74;754;-68
2023/09/12 01:13:50;;;;;;;;;;;24.00;56.50;;;;;;1568926;74;571;-69
2023/09/12 01:15:52;;;;;;;;;;;24.00;56.50;;;;;;1560755;74;767;-71
2023/09/12 01:17:53;;;;;;;;;;;24.00;56.50;;;;;;1564567;74;1432;-69
2023/09/12 01:19:55;;;;;;;;;;;23.90;56.50;;;;;;1568785;74;726;-69
2023/09/12 01:22:05;;;;;;;;;;;24.00;56.50;;;;;;1569941;74;688;-69
2023/09/12 01:24:20;;;;;;;;;;;24.00;56.50;;;;;;1568583;74;719;-69
2023/09/12 01:26:29;;;;;;;;;;;24.00;56.40;;;;;;1564551;74;1930;-68
2023/09/12 01:28:31;;;;;;;;;;;23.90;56.50;;;;;;1561478;74;712;-69
2023/09/12 01:30:33;;;;;;;;;;;24.00;56.50;;;;;;1564850;74;957;-69
2023/09/12 01:32:35;;;;;;;;;;;23.90;56.50;;;;;;1562651;74;1669;-71
2023/09/12 01:34:37;;;;;;;;;;;23.90;56.50;;;;;;1567766;74;738;-70
2023/09/12 01:36:39;;;;;;;;;;;24.00;56.50;;;;;;1533609;76;1138;-68
2023/09/12 01:38:41;;;;;;;;;;;23.90;56.50;;;;;;1531047;76;732;-69
2023/09/12 01:40:49;;;;;;;;;;;23.90;56.50;;;;;;1530313;76;748;-69
2023/09/12 01:42:51;;;;;;;;;;;24.00;56.50;;;;;;1529625;76;669;-68
2023/09/12 01:44:55;;;;;;;;;;;23.90;56.50;;;;;;1529212;76;1570;-69
2023/09/12 01:46:57;;;;;;;;;;;23.90;56.50;;;;;;1507948;77;1945;-70
2023/09/12 01:48:59;;;;;;;;;;;23.90;56.50;;;;;;1504103;77;716;-68
2023/09/12 01:51:03;;;;;;;;;;;23.90;56.50;;;;;;1512283;77;721;-70
2023/09/12 01:53:05;;;;;;;;;;;24.00;56.50;;;;;;1526571;76;746;-69
2023/09/12 01:55:09;;;;;;;;;;;23.90;56.50;;;;;;1510450;77;752;-69
2023/09/12 01:57:10;;;;;;;;;;;23.90;56.50;;;;;;1528748;76;1153;-70
2023/09/12 01:59:12;;;;;;;;;;;23.90;56.50;;;;;;1529229;76;1546;-70
2023/09/12 02:01:14;;;;;;;;;;;24.00;56.40;;;;;;1521783;77;719;-69
2023/09/12 02:03:16;;;;;;;;;;;23.90;56.50;;;;;;1513365;77;704;-68
2023/09/12 02:05:21;;;;;;;;;;;23.90;56.50;;;;;;1519804;77;771;-69
2023/09/12 02:07:23;;;;;;;;;;;24.00;56.40;;;;;;1516702;77;1914;-70
2023/09/12 02:09:25;;;;;;;;;;;23.90;56.50;;;;;;1514324;77;738;-69
2023/09/12 02:11:27;;;;;;;;;;;23.90;56.40;;;;;;1532183;76;712;-70
2023/09/12 02:13:29;;;;;;;;;;;23.90;56.40;;;;;;1497382;77;1641;-69
2023/09/12 02:15:31;;;;;;;;;;;23.90;56.40;;;;;;1527183;76;743;-69
2023/09/12 02:17:33;;;;;;;;;;;23.90;56.50;;;;;;1504377;77;1097;-69
2023/09/12 02:19:35;;;;;;;;;;;23.90;56.50;;;;;;1570210;74;750;-69
2023/09/12 02:21:37;;;;;;;;;;;23.90;56.50;;;;;;1569780;74;782;-69
2023/09/12 02:23:38;;;;;;;;;;;23.90;56.50;;;;;;1563895;74;762;-70
2023/09/12 02:25:40;;;;;;;;;;;23.90;56.50;;;;;;1562025;74;746;-70
2023/09/12 02:27:42;;;;;;;;;;;23.90;56.40;;;;;;1567177;74;1931;-69
2023/09/12 02:29:44;;;;;;;;;;;23.90;56.40;;;;;;1573252;74;749;-68
2023/09/12 02:31:46;;;;;;;;;;;23.90;56.40;;;;;;1569539;74;794;-69
2023/09/12 02:33:48;;;;;;;;;;;23.90;56.40;;;;;;1570699;74;811;-68
2023/09/12 02:35:50;;;;;;;;;;;23.90;56.40;;;;;;1570149;74;772;-66
2023/09/12 02:37:52;;;;;;;;;;;23.90;56.40;;;;;;1572100;74;1137;-69
2023/09/12 02:39:54;;;;;;;;;;;23.90;56.30;;;;;;1568889;74;553;-69
2023/09/12 02:41:56;;;;;;;;;;;23.90;56.30;;;;;;1567498;74;1525;-70
2023/09/12 02:43:58;;;;;;;;;;;23.90;56.30;;;;;;1567196;74;792;-69
2023/09/12 02:46:00;;;;;;;;;;;23.90;56.30;;;;;;1570350;74;1906;-68
2023/09/12 02:48:02;;;;;;;;;;;23.90;56.30;;;;;;1563960;74;1117;-70
2023/09/12 02:50:04;;;;;;;;;;;23.90;56.30;;;;;;1565780;74;745;-70
2023/09/12 02:52:06;;;;;;;;;;;23.90;56.30;;;;;;1562579;74;738;-69
2023/09/12 02:54:08;;;;;;;;;;;23.90;56.30;;;;;;1562800;74;793;-69
2023/09/12 02:56:10;;;;;;;;;;;23.80;56.20;;;;;;1564282;74;1434;-69
2023/09/12 02:58:12;;;;;;;;;;;23.90;56.20;;;;;;1573668;74;1154;-68
2023/09/12 03:00:14;;;;;;;;;;;23.90;56.20;;;;;;1567071;74;730;-69
2023/09/12 03:02:15;;;;;;;;;;;23.90;56.20;;;;;;1570788;74;798;-69
2023/09/12 03:04:17;;;;;;;;;;;23.90;56.20;;;;;;1560606;74;821;-68
2023/09/12 03:06:19;;;;;;;;;;;23.90;56.30;;;;;;1564175;74;1908;-71
2023/09/12 03:08:21;;;;;;;;;;;23.90;56.20;;;;;;1563892;74;759;-69
2023/09/12 03:10:23;;;;;;;;;;;23.90;56.20;;;;;;1557024;74;1657;-67
2023/09/12 03:12:25;;;;;;;;;;;23.90;56.20;;;;;;1569267;74;753;-69
2023/09/12 03:14:28;;;;;;;;;;;23.90;56.20;;;;;;1568053;74;773;-69
2023/09/12 03:16:30;;;;;;;;;;;23.90;56.20;;;;;;1562236;74;1133;-69
2023/09/12 03:18:32;;;;;;;;;;;23.90;56.20;;;;;;1569718;74;629;-69
2023/09/12 03:20:34;;;;;;;;;;;23.90;56.20;;;;;;1570744;74;778;-69
2023/09/12 03:22:38;;;;;;;;;;;23.80;56.00;;;;;;1535598;76;1171;-69
2023/09/12 03:24:40;;;;;;;;;;;23.80;56.00;;;;;;1570729;74;1579;-68
2023/09/12 03:26:42;;;;;;;;;;;23.90;56.10;;;;;;1563490;74;1934;-69
2023/09/12 03:28:44;;;;;;;;;;;23.90;56.00;;;;;;1566571;74;724;-69
2023/09/12 03:30:46;;;;;;;;;;;23.90;56.00;;;;;;1564146;74;794;-69
2023/09/12 03:32:48;;;;;;;;;;;23.80;56.00;;;;;;1561590;74;677;-68
2023/09/12 03:34:50;;;;;;;;;;;23.90;56.00;;;;;;1568369;74;757;-69
2023/09/12 03:36:51;;;;;;;;;;;23.90;56.00;;;;;;1564085;74;1140;-70
2023/09/12 03:38:53;;;;;;;;;;;23.80;55.90;;;;;;1569752;74;1560;-69
2023/09/12 03:40:55;;;;;;;;;;;23.90;56.00;;;;;;1563007;74;734;-69
2023/09/12 03:42:57;;;;;;;;;;;23.90;56.00;;;;;;1570779;74;789;-71
2023/09/12 03:44:59;;;;;;;;;;;23.80;55.90;;;;;;1570479;74;761;-69
2023/09/12 03:47:01;;;;;;;;;;;23.80;55.90;;;;;;1560615;74;1920;-69
2023/09/12 03:49:03;;;;;;;;;;;23.80;55.90;;;;;;1570081;74;757;-69
2023/09/12 03:51:05;;;;;;;;;;;23.90;55.90;;;;;;1566024;74;716;-70
2023/09/12 03:53:06;;;;;;;;;;;23.80;55.80;;;;;;1559920;74;1585;-69
2023/09/12 03:55:09;;;;;;;;;;;23.80;55.80;;;;;;1570609;74;749;-69
2023/09/12 03:57:10;;;;;;;;;;;23.80;55.80;;;;;;1566808;74;1121;-69
2023/09/12 03:59:12;;;;;;;;;;;23.90;55.90;;;;;;1539133;76;795;-69
2023/09/12 04:01:14;;;;;;;;;;;23.80;55.80;;;;;;1522014;76;720;-69
2023/09/12 04:03:16;;;;;;;;;;;23.80;55.70;;;;;;1533522;76;746;-69
2023/09/12 04:05:18;;;;;;;;;;;23.80;55.70;;;;;;1525044;76;748;-68
2023/09/12 04:07:20;;;;;;;;;;;23.80;55.70;;;;;;1511362;78;1941;-70
2023/09/12 04:09:22;;;;;;;;;;;23.80;55.70;;;;;;1562916;74;723;-69
2023/09/12 04:11:23;;;;;;;;;;;23.70;55.60;;;;;;1561435;74;726;-68
2023/09/12 04:13:25;;;;;;;;;;;23.80;55.60;;;;;;1569277;74;727;-69
2023/09/12 04:15:27;;;;;;;;;;;23.70;55.60;;;;;;1571036;74;750;-69
2023/09/12 04:17:29;;;;;;;;;;;23.80;55.60;;;;;;1569080;74;1122;-69
2023/09/12 04:19:31;;;;;;;;;;;23.70;55.50;;;;;;1570028;74;1505;-69
2023/09/12 04:21:33;;;;;;;;;;;23.80;55.50;;;;;;1574228;74;778;-69
2023/09/12 04:23:35;;;;;;;;;;;23.80;55.50;;;;;;1570742;74;640;-68
2023/09/12 04:25:37;;;;;;;;;;;23.80;55.50;;;;;;1569346;74;831;-70
2023/09/12 04:27:39;;;;;;;;;;;23.70;55.50;;;;;;1570879;74;1946;-66
2023/09/12 04:29:41;;;;;;;;;;;23.80;55.50;;;;;;1561695;74;701;-69
2023/09/12 04:31:43;;;;;;;;;;;23.80;55.50;;;;;;1564509;74;774;-69
2023/09/12 04:33:45;;;;;;;;;;;23.70;55.50;;;;;;1571223;74;1508;-69
2023/09/12 04:35:46;;;;;;;;;;;23.80;55.50;;;;;;1570408;74;734;-68
2023/09/12 04:37:48;;;;;;;;;;;23.80;55.50;;;;;;1570028;74;1127;-67
2023/09/12 04:39:50;;;;;;;;;;;23.80;55.50;;;;;;1569323;74;664;-69
2023/09/12 04:41:52;;;;;;;;;;;23.80;55.50;;;;;;1570366;74;775;-68
2023/09/12 04:43:54;;;;;;;;;;;23.80;55.50;;;;;;1568894;74;737;-68
2023/09/12 04:45:56;;;;;;;;;;;23.70;55.50;;;;;;1564552;74;727;-69
2023/09/12 04:47:58;;;;;;;;;;;23.80;55.40;;;;;;1568752;74;1953;-69
2023/09/12 04:50:01;;;;;;;;;;;23.80;55.40;;;;;;1573198;74;732;-69
2023/09/12 04:52:03;;;;;;;;;;;23.80;55.40;;;;;;1564084;74;734;-68
2023/09/12 04:54:05;;;;;;;;;;;23.80;55.40;;;;;;1565697;74;767;-70
2023/09/12 04:56:09;;;;;;;;;;;23.80;55.30;;;;;;1564006;74;778;-68
2023/09/12 04:58:10;;;;;;;;;;;23.80;55.30;;;;;;1568225;74;1683;-69
2023/09/12 05:00:13;;;;;;;;;;;23.80;55.30;;;;;;1568434;74;747;-69
2023/09/12 05:02:15;;;;;;;;;;;23.80;55.20;;;;;;1566939;74;1423;-67
2023/09/12 05:04:17;;;;;;;;;;;23.80;55.20;;;;;;1567352;74;799;-68
2023/09/12 05:06:19;;;;;;;;;;;23.80;55.20;;;;;;1566594;74;791;-68
2023/09/12 05:08:21;;;;;;;;;;;23.80;55.20;;;;;;1562505;74;1950;-69
2023/09/12 05:10:23;;;;;;;;;;;23.80;55.20;;;;;;1557101;74;764;-67
2023/09/12 05:12:25;;;;;;;;;;;23.70;55.20;;;;;;1568333;74;768;-69
2023/09/12 05:14:27;;;;;;;;;;;23.80;55.20;;;;;;1565146;74;782;-70
2023/09/12 05:16:29;;;;;;;;;;;23.80;55.20;;;;;;1559994;74;1532;-69
2023/09/12 05:18:31;;;;;;;;;;;23.80;55.10;;;;;;1566908;74;809;-69
2023/09/12 05:20:33;;;;;;;;;;;23.80;55.20;;;;;;1563388;74;745;-69
2023/09/12 05:22:35;;;;;;;;;;;23.80;55.10;;;;;;1562341;74;789;-69
2023/09/12 05:24:37;;;;;;;;;;;23.80;55.10;;;;;;1570322;74;758;-69
2023/09/12 05:26:39;;;;;;;;;;;23.80;55.10;;;;;;1569262;74;1127;-69
2023/09/12 05:28:41;;;;;;;;;;;23.80;55.00;;;;;;1570463;74;1938;-69
2023/09/12 05:30:43;;;;;;;;;;;23.80;55.10;;;;;;1563326;74;1567;-69
2023/09/12 05:32:45;;;;;;;;;;;23.80;55.10;;;;;;1570511;74;746;-69
2023/09/12 05:34:49;;;;;;;;;;;23.80;55.10;;;;;;1561929;74;719;-69
2023/09/12 05:36:50;;;;;;;;;;;23.80;55.10;;;;;;1570335;74;1735;-69
2023/09/12 05:38:52;;;;;;;;;;;23.80;55.10;;;;;;1565379;74;683;-69
2023/09/12 05:40:54;;;;;;;;;;;23.80;55.10;;;;;;1556503;74;738;-69
2023/09/12 05:42:56;;;;;;;;;;;23.80;55.10;;;;;;1564909;74;731;-69
2023/09/12 05:44:58;;;;;;;;;;;23.70;55.00;;;;;;1570646;75;1529;-68
2023/09/12 05:47:00;;;;;;;;;;;23.70;55.00;;;;;;1566861;74;1136;-69
2023/09/12 05:49:01;;;;;;;;;;;23.70;54.50;;;;;;1564572;74;794;-69
2023/09/12 05:51:03;;;;;;;;;;;23.80;54.30;;;;;;1572768;74;747;-68
2023/09/12 05:53:05;;;;;;;;;;;23.80;54.70;;;;;;1562998;74;723;-70
2023/09/12 05:55:07;;;;;;;;;;;23.80;55.00;;;;;;1569575;75;730;-69
2023/09/12 05:57:09;;;;;;;;;;;23.70;55.00;;;;;;1564883;74;1156;-65
2023/09/12 05:59:11;;;;;;;;;;;23.80;55.00;;;;;;1554231;74;1547;-69
2023/09/12 06:01:14;;;;;;;;;;;23.70;55.00;;;;;;1567510;74;721;-69
2023/09/12 06:03:16;;;;;;;;;;;23.70;55.00;;;;;;1565433;74;696;-68
2023/09/12 06:05:18;;;;;;;;;;;23.80;55.00;;;;;;1561718;74;847;-68
2023/09/12 06:07:20;;;;;;;;;;;23.80;55.00;;;;;;1566116;74;1954;-69
2023/09/12 06:09:21;;;;;;;;;;;23.80;55.00;;;;;;1563709;74;616;-68
2023/09/12 06:11:23;;;;;;;;;;;23.80;55.00;;;;;;1559012;74;585;-68
2023/09/12 06:13:25;;;;;;;;;;;23.80;55.00;;;;;;1569098;74;1563;-68
2023/09/12 06:15:27;;;;;;;;;;;23.80;55.10;;;;;;1559246;74;679;-68
2023/09/12 06:17:29;;;;;;;;;;;23.80;55.10;;;;;;1567341;74;1145;-69
2023/09/12 06:19:31;;;;;;;;;;;23.80;55.10;;;;;;1575207;74;796;-69
2023/09/12 06:21:33;;;;;;;;;;;23.80;55.00;;;;;;1569982;74;784;-69
2023/09/12 06:23:35;;;;;;;;;;;23.80;55.10;;;;;;1570217;74;732;-68
2023/09/12 06:25:37;;;;;;;;;;;23.80;55.10;;;;;;1569635;74;707;-68
2023/09/12 06:27:39;;;;;;;;;;;23.70;55.00;;;;;;1569873;74;1946;-69
2023/09/12 06:29:40;;;;;;;;;;;23.90;55.20;;;;;;1565569;74;579;-68
2023/09/12 06:31:42;;;;;;;;;;;23.80;55.20;;;;;;1567005;74;600;-68
2023/09/12 06:33:44;;;;;;;;;;;23.80;55.20;;;;;;1567410;74;795;-68
2023/09/12 06:35:50;;;;;;;;;;;23.80;55.20;;;;;;1564534;74;718;-69
2023/09/12 06:37:52;;;;;;;;;;;23.70;55.20;;;;;;1569523;74;1141;-68
2023/09/12 06:39:53;;;;;;;;;;;23.80;55.20;;;;;;1569793;74;825;-68
2023/09/12 06:41:55;;;;;;;;;;;23.80;55.20;;;;;;1570006;74;1468;-69
2023/09/12 06:43:58;;;;;;;;;;;23.80;55.20;;;;;;1569510;74;595;-69
2023/09/12 06:46:00;;;;;;;;;;;23.80;55.20;;;;;;1570132;74;729;-68
2023/09/12 06:48:02;;;;;;;;;;;23.70;55.20;;;;;;1570625;74;1938;-68
2023/09/12 06:50:04;;;;;;;;;;;23.80;55.20;;;;;;1564556;74;797;-70
2023/09/12 06:52:06;;;;;;;;;;;23.80;55.30;;;;;;1568610;74;749;-69
2023/09/12 06:54:08;;;;;;;;;;;23.80;55.40;;;;;;1567957;74;741;-71
2023/09/12 06:56:10;;;;;;;;;;;23.70;55.40;;;;;;1564272;74;793;-69
2023/09/12 06:58:12;;;;;;;;;;;23.80;55.50;;;;;;1568959;74;1122;-66
2023/09/12 07:00:14;;;;;;;;;;;23.80;55.50;;;;;;1560582;74;785;-68
2023/09/12 07:02:18;;;;;;;;;;;23.90;55.50;;;;;;1569622;74;731;-70
2023/09/12 07:04:20;;;;;;;;;;;23.80;55.50;;;;;;1570640;74;837;-69
2023/09/12 07:06:21;;;;;;;;;;;23.90;55.60;;;;;;1563089;74;860;-69
2023/09/12 07:08:23;;;;;;;;;;;23.80;55.50;;;;;;1571790;74;1953;-67
2023/09/12 07:10:25;;;;;;;;;;;23.80;55.40;;;;;;1563747;74;753;-69
2023/09/12 07:12:28;;;;;;;;;;;23.90;55.50;;;;;;1564544;74;772;-69
2023/09/12 07:14:31;;;;;;;;;;;23.90;55.50;;;;;;1570106;74;844;-69
2023/09/12 07:16:33;;;;;;;;;;;23.90;55.50;;;;;;1570052;74;1226;-69
2023/09/12 07:18:35;;;;;;;;;;;23.90;55.50;;;;;;1569995;74;743;-69
2023/09/12 07:20:37;;;;;;;;;;;23.90;55.50;;;;;;1561443;74;776;-69
2023/09/12 07:22:42;;;;;;;;;;;23.90;55.60;;;;;;1567463;74;1466;-70
2023/09/12 07:24:44;;;;;;;;;;;23.90;55.60;;;;;;1569525;74;795;-69
2023/09/12 07:26:46;;;;;;;;;;;23.80;55.50;;;;;;1570316;74;1189;-69
2023/09/12 07:28:48;;;;;;;;;;;23.90;55.70;;;;;;1569274;74;1922;-69
2023/09/12 07:30:50;;;;;;;;;;;23.90;55.70;;;;;;1567568;74;810;-72
2023/09/12 07:32:52;;;;;;;;;;;23.90;55.70;;;;;;1568012;74;771;-71
2023/09/12 07:34:54;;;;;;;;;;;23.90;55.70;;;;;;1567078;74;780;-68
2023/09/12 07:36:56;;;;;;;;;;;23.90;55.80;;;;;;1564544;74;1521;-68
2023/09/12 07:38:58;;;;;;;;;;;24.00;55.90;;;;;;1570630;74;667;-69
2023/09/12 07:41:00;;;;;;;;;;;24.00;55.90;;;;;;1563792;74;719;-69
2023/09/12 07:43:02;;;;;;;;;;;23.90;55.90;;;;;;1569423;74;708;-69
2023/09/12 07:45:04;;;;;;;;;;;23.90;56.00;;;;;;1570584;74;737;-68
2023/09/12 07:47:07;;;;;;;;;;;24.00;56.10;;;;;;1567460;74;1132;-69
2023/09/12 07:49:09;;;;;;;;;;;24.00;56.20;;;;;;1563606;74;1915;-69
2023/09/12 07:51:14;;;;;;;;;;;24.00;56.20;;;;;;1556690;74;1278;-68
2023/09/12 07:53:16;;;;;;;;;;;23.90;56.30;;;;;;1565500;74;756;-69
2023/09/12 07:55:18;;;;;;;;;;;24.00;56.30;;;;;;1570651;74;758;-69
2023/09/12 07:57:20;;;;;;;;;;;24.00;56.30;;;;;;1569377;74;1102;-68
2023/09/12 07:59:22;;;;;;;;;;;24.00;56.40;;;;;;1561952;74;733;-68
2023/09/12 08:01:24;;;;;;;;;;;24.00;56.50;;;;;;1558564;74;780;-68
2023/09/12 08:03:26;;;;;;;;;;;24.00;56.50;;;;;;1567469;74;787;-69
2023/09/12 08:05:28;;;;;;;;;;;24.00;56.50;;;;;;1566847;74;1539;-70
2023/09/12 08:07:30;;;;;;;;;;;24.00;56.70;;;;;;1561731;74;1125;-69
2023/09/12 08:09:49;;;;;;;;;;;24.00;56.70;;;;;;1570625;74;1920;-69
2023/09/12 08:11:51;;;;;;;;;;;24.00;56.80;;;;;;1569708;74;702;-67
2023/09/12 08:13:52;;;;;;;;;;;24.00;56.80;;;;;;1568801;74;629;-69
2023/09/12 08:15:55;;;;;;;;;;;24.10;57.00;;;;;;1566082;74;803;-69
2023/09/12 08:17:56;;;;;;;;;;;24.00;56.90;;;;;;1564279;74;1136;-69
2023/09/12 08:19:58;;;;;;;;;;;24.10;57.10;;;;;;1567081;74;1518;-69
2023/09/12 08:22:00;;;;;;;;;;;24.00;57.10;;;;;;1568965;74;743;-68
2023/09/12 08:24:02;;;;;;;;;;;24.00;57.20;;;;;;1570513;74;733;-70
2023/09/12 08:26:04;;;;;;;;;;;24.10;57.30;;;;;;1570230;74;752;-70
2023/09/12 08:28:06;;;;;;;;;;;24.00;57.30;;;;;;1570097;74;1950;-69
2023/09/12 08:30:08;;;;;;;;;;;24.00;57.30;;;;;;1564166;74;777;-69
2023/09/12 08:32:10;;;;;;;;;;;24.00;57.40;;;;;;1565183;74;827;-69
2023/09/12 08:34:12;;;;;;;;;;;24.10;57.60;;;;;;1571832;74;1332;-69
2023/09/12 08:36:14;;;;;;;;;;;24.10;57.70;;;;;;1563640;74;782;-69
2023/09/12 08:38:16;;;;;;;;;;;24.10;57.80;;;;;;1564709;74;1105;-69
2023/09/12 08:40:18;;;;;;;;;;;24.10;57.80;;;;;;1570455;74;697;-69
2023/09/12 08:42:20;;;;;;;;;;;24.10;57.80;;;;;;1568185;74;730;-69
2023/09/12 08:44:22;;;;;;;;;;;24.10;58.00;;;;;;1570399;74;846;-67
2023/09/12 08:46:24;;;;;;;;;;;24.10;58.00;;;;;;1561110;74;1144;-69
2023/09/12 08:48:26;;;;;;;;;;;24.10;58.10;;;;;;1565262;74;1937;-69
2023/09/12 08:50:31;;;;;;;;;;;24.10;58.10;;;;;;1559985;74;654;-69
2023/09/12 08:52:31;;;;;;;;;;;24.10;58.20;;;;;;1567688;74;1523;-69
2023/09/12 08:54:33;;;;;;;;;;;24.10;58.30;;;;;;1569256;74;755;-69
2023/09/12 08:56:36;;;;;;;;;;;24.20;58.40;;;;;;1568990;74;1132;-69
2023/09/12 08:58:38;;;;;;;;;;;24.10;58.40;;;;;;1570447;74;692;-69
2023/09/12 09:00:40;;;;;;;;;;;24.10;58.40;;;;;;1571999;74;773;-69
2023/09/12 09:02:41;;;;;;;;;;;24.10;58.50;;;;;;1570248;74;1789;-69
2023/09/12 09:04:44;;;;;;;;;;;24.20;58.60;;;;;;1569229;74;732;-69
2023/09/12 09:06:46;;;;;;;;;;;24.20;58.60;;;;;;1566783;74;1110;-69
2023/09/12 09:08:48;;;;;;;;;;;24.10;58.80;;;;;;1558332;74;1938;-69
2023/09/12 09:10:56;;;;;;;;;;;24.10;58.80;;;;;;1566417;74;837;-69
2023/09/12 09:12:58;;;;;;;;;;;24.20;58.90;;;;;;1568753;74;812;-69
2023/09/12 09:15:02;;;;;;;;;;;24.20;58.90;;;;;;1560428;74;1521;-69
2023/09/12 09:17:04;;;;;;;;;;;24.20;59.00;;;;;;1564050;74;1130;-68
2023/09/12 09:19:09;;;;;;;;;;;24.20;59.10;;;;;;1569664;74;756;-69
2023/09/12 09:21:14;;;;;;;;;;;24.20;59.20;;;;;;1567983;74;1702;-69
2023/09/12 09:23:15;;;;;;;;;;;24.20;59.20;;;;;;1556729;74;1859;-69
2023/09/12 09:25:17;;;;;;;;;;;24.20;59.30;;;;;;1570143;74;824;-69
2023/09/12 09:27:34;;;;;;;;;;;24.20;59.30;;;;;;1564531;74;1227;-69
2023/09/12 09:29:48;;;;;;;;;;;24.20;59.30;;;;;;1557294;74;1900;-69
2023/09/12 09:31:50;;;;;;;;;;;24.20;59.40;;;;;;1574461;74;733;-67
2023/09/12 09:33:52;;;;;;;;;;;24.20;59.50;;;;;;1570421;74;747;-68
2023/09/12 09:35:54;;;;;;;;;;;24.20;59.50;;;;;;1565173;74;800;-68
2023/09/12 09:37:56;;;;;;;;;;;24.20;59.50;;;;;;1535092;76;1160;-69
2023/09/12 09:39:58;;;;;;;;;;;24.20;59.60;;;;;;1570217;74;787;-69
2023/09/12 09:42:00;;;;;;;;;;;24.20;59.70;;;;;;1569330;74;667;-69
2023/09/12 09:44:04;;;;;;;;;;;24.20;59.70;;;;;;1565727;74;1517;-69
2023/09/12 09:46:06;;;;;;;;;;;24.20;59.70;;;;;;1570014;74;771;-69
2023/09/12 09:48:08;;;;;;;;;;;24.20;59.80;;;;;;1570364;74;1136;-69
2023/09/12 09:50:10;;;;;;;;;;;24.20;59.80;;;;;;1570591;74;1917;-68
2023/09/12 09:52:12;;;;;;;;;;;24.20;59.80;;;;;;1561933;74;747;-68
2023/09/12 09:54:14;;;;;;;;;;;24.30;60.00;;;;;;1570707;74;780;-69
2023/09/12 09:56:16;;;;;;;;;;;24.20;59.90;;;;;;1566134;74;753;-68
2023/09/12 09:58:18;;;;;;;;;;;24.20;59.90;;;;;;1562370;74;1567;-68
2023/09/12 10:00:21;;;;;;;;;;;24.30;60.00;;;;;;1565834;74;862;-68
2023/09/12 10:02:23;;;;;;;;;;;24.30;60.10;;;;;;1537943;76;802;-69
2023/09/12 10:04:27;;;;;;;;;;;24.20;60.00;;;;;;1570596;74;765;-70
2023/09/12 10:06:29;;;;;;;;;;;24.30;60.20;;;;;;1562698;74;1161;-69
2023/09/12 10:08:31;;;;;;;;;;;24.20;60.00;;;;;;1570093;74;831;-69
2023/09/12 10:10:34;;;;;;;;;;;24.20;60.00;;;;;;1572704;74;1918;-69
2023/09/12 10:12:36;;;;;;;;;;;24.20;60.00;;;;;;1562491;74;1547;-68
2023/09/12 10:14:38;;;;;;;;;;;24.30;60.10;;;;;;1563756;74;750;-70
2023/09/12 10:16:41;;;;;;;;;;;24.20;60.10;;;;;;1569148;74;1163;-69
2023/09/12 10:18:45;;;;;;;;;;;24.30;60.10;;;;;;1568320;74;1909;-69
2023/09/12 10:20:51;;;;;;;;;;;24.30;60.20;;;;;;1567915;74;1942;-69
2023/09/12 10:22:55;;;;;;;;;;;24.30;60.10;;;;;;1569930;74;590;-70
2023/09/12 10:24:56;;;;;;;;;;;24.30;60.10;;;;;;1562211;74;1699;-69
2023/09/12 10:26:58;;;;;;;;;;;24.20;60.00;;;;;;1561960;74;1668;-69
2023/09/12 10:29:00;;;;;;;;;;;24.30;60.10;;;;;;1569658;74;1914;-69
2023/09/12 10:31:02;;;;;;;;;;;24.30;60.10;;;;;;1571270;74;752;-68
2023/09/12 10:33:04;;;;;;;;;;;24.30;60.00;;;;;;1575128;74;777;-69
2023/09/12 10:35:06;;;;;;;;;;;24.30;60.00;;;;;;1568445;74;703;-69
2023/09/12 10:37:08;;;;;;;;;;;24.30;60.00;;;;;;1563020;74;1150;-69
2023/09/12 10:39:10;;;;;;;;;;;24.30;59.90;;;;;;1566850;74;736;-72
2023/09/12 10:41:14;;;;;;;;;;;24.30;60.00;;;;;;1561320;74;677;-69
2023/09/12 10:43:16;;;;;;;;;;;24.30;60.00;;;;;;1564217;74;729;-70
2023/09/12 10:45:18;;;;;;;;;;;24.30;60.00;;;;;;1570592;74;805;-69
2023/09/12 10:47:20;;;;;;;;;;;24.30;60.00;;;;;;1568419;74;1156;-69
2023/09/12 10:49:21;;;;;;;;;;;24.30;59.90;;;;;;1569734;74;1936;-69
2023/09/12 10:51:23;;;;;;;;;;;24.30;59.80;;;;;;1558753;74;726;-69
2023/09/12 10:53:26;;;;;;;;;;;24.30;59.80;;;;;;1569063;74;787;-69
2023/09/12 10:55:27;;;;;;;;;;;24.30;59.80;;;;;;1559139;74;746;-69
2023/09/12 10:57:29;;;;;;;;;;;24.20;59.50;;;;;;1569582;74;1107;-69
2023/09/12 10:59:37;;;;;;;;;;;24.30;59.50;;;;;;1567494;74;762;-71
2023/09/12 11:01:40;;;;;;;;;;;24.30;59.40;;;;;;1562866;74;766;-67
2023/09/12 11:03:42;;;;;;;;;;;24.30;59.30;;;;;;1569173;74;752;-70
2023/09/12 11:05:53;;;;;;;;;;;24.30;59.20;;;;;;1563672;74;744;-69
2023/09/12 11:07:59;;;;;;;;;;;24.30;59.20;;;;;;1563752;74;1113;-68
2023/09/12 11:10:21;;;;;;;;;;;24.30;59.20;;;;;;1563949;74;1922;-69
2023/09/12 11:12:35;;;;;;;;;;;24.30;59.00;;;;;;1562309;74;681;-67
2023/09/12 11:14:37;;;;;;;;;;;24.30;58.90;;;;;;1565462;74;797;-69
2023/09/12 11:16:39;;;;;;;;;;;24.30;58.80;;;;;;1531033;76;1142;-69
2023/09/12 11:18:59;;;;;;;;;;;24.20;58.50;;;;;;1511850;77;677;-69
2023/09/12 11:21:04;;;;;;;;;;;24.30;58.50;;;;;;1515017;78;758;-69
2023/09/12 11:23:11;;;;;;;;;;;24.30;58.40;;;;;;1525454;77;711;-69
2023/09/12 11:25:23;;;;;;;;;;;24.20;58.10;;;;;;1524222;77;711;-69
2023/09/12 11:27:26;;;;;;;;;;;24.30;58.10;;;;;;1522150;77;1051;-68
2023/09/12 11:29:29;;;;;;;;;;;24.30;58.00;;;;;;1523246;77;1932;-69
2023/09/12 11:31:31;;;;;;;;;;;24.30;57.90;;;;;;1520471;77;771;-69
2023/09/12 11:33:32;;;;;;;;;;;24.30;57.80;;;;;;1522875;76;727;-69
2023/09/12 11:35:36;;;;;;;;;;;24.30;57.70;;;;;;1515850;77;658;-68
2023/09/12 11:37:38;;;;;;;;;;;24.30;57.60;;;;;;1520745;77;1192;-70
2023/09/12 11:39:40;;;;;;;;;;;24.30;57.60;;;;;;1523271;77;1535;-67
2023/09/12 11:41:42;;;;;;;;;;;24.30;57.50;;;;;;1516361;77;680;-68
2023/09/12 11:43:44;;;;;;;;;;;24.30;57.40;;;;;;1516628;77;792;-70
2023/09/12 11:45:46;;;;;;;;;;;24.20;57.20;;;;;;1522222;77;829;-68
2023/09/12 11:47:48;;;;;;;;;;;24.20;57.20;;;;;;1520597;77;1134;-69
2023/09/12 11:49:50;;;;;;;;;;;24.30;57.30;;;;;;1523105;77;1916;-69
2023/09/12 11:51:52;;;;;;;;;;;24.20;57.10;;;;;;1513600;77;780;-70
2023/09/12 11:53:55;;;;;;;;;;;24.40;57.20;;;;;;1524004;76;726;-70
2023/09/12 11:56:00;;;;;;;;;;;24.20;56.90;;;;;;1524259;77;739;-68
2023/09/12 11:58:03;;;;;;;;;;;24.30;57.00;;;;;;1520764;77;1099;-70
2023/09/12 12:00:08;;;;;;;;;;;24.30;57.00;;;;;;1520828;77;722;-69
2023/09/12 12:02:10;;;;;;;;;;;24.20;56.80;;;;;;1523430;77;767;-71
2023/09/12 12:04:12;;;;;;;;;;;24.30;56.90;;;;;;1523029;77;733;-69
2023/09/12 12:06:14;;;;;;;;;;;24.30;56.90;;;;;;1522789;77;725;-66
2023/09/12 12:08:16;;;;;;;;;;;24.20;56.80;;;;;;1518968;77;1127;-66
2023/09/12 12:10:18;;;;;;;;;;;24.30;56.80;;;;;;1523361;77;1932;-69